Muskoka Airport

About
Name: Muskoka Airport
Identifier:  YQA/CYQA
Serves:  District Municipality of Muskoka
Owner:  District Municipality of Muskoka
Public/Private:  Public
Local Time:  15. Sep 03:47 EDT
Description: Muskoka Airport is located 4 nautical miles south of Bracebridge, Ontario, Canada.
Source: Wikipedia
Location
Muskoka
  Canada

Runways
Identifier Length (m/ft) Surface
09/27 670/2,199 Turf
18/36 1,829/6,000 Asphalt
Statistics
Flights per Day:
0 flights
Distance: 489km (303mi)
Flights delayed:
0% (0 flights per day delayed)
Delay Average: 1295 minutes
Current Weather
 7 C (Humidity: 93%)
  2kt (3km/h / 2mph) from 140°
  Few clouds at 200 feet (60 meter)
  0km (0 mi.)
 Mist
 METAR CYQA 150720Z AUTO 14002KT 1 1/4SM BR FEW002 07/06 A3013 RMK SLP210

Current Delays

Departures
N/A
Arrivals
N/A

Destinations

Top Destinations
Airport Flights
per week
Seats
per week
  Toronto (YTZ) 2 172 0 24
  Oakland County (PTK) 0 - 0 0
  Lansing (LAN) 0 - 0 0
  Westhampton Beach (FOK) 0 - 0 0
  Portsmouth (PSM) 0 - 0 0

Airlines & Planes

Top Airlines
Airline Flights
per Day
Seats
per Day
  Porter Airlines 0 24
Gama Aviation 0 -
Tradewind Aviation 0 -
Top Plane Types
Model Flights Seats
Bombardier Dash 8-400 0.3/day 24/day 24.666666666666668
Beech B200 Super King Air 0.1/day - 0
Beech B300 Super King Air 350 0.1/day - 0
Pilatus PC-12 0.0/day - 0